createdAt,value
2022-08-31T00:00:31.445Z,99.90
2022-08-31T00:03:17.571Z,99.90
2022-08-31T00:05:45.929Z,99.90
2022-08-31T00:08:15.551Z,99.90
2022-08-31T00:10:46.515Z,99.90
2022-08-31T00:13:15.666Z,99.90
2022-08-31T00:15:46.183Z,99.90
2022-08-31T00:18:14.422Z,99.90
2022-08-31T00:20:43.259Z,99.90
2022-08-31T00:23:14.350Z,99.90
2022-08-31T00:25:47.783Z,99.90
2022-08-31T00:28:17.625Z,99.90
2022-08-31T00:30:46.965Z,99.90
2022-08-31T00:33:16.606Z,99.90
2022-08-31T00:35:45.698Z,99.90
2022-08-31T00:38:14.315Z,99.90
2022-08-31T00:40:47.933Z,99.90
2022-08-31T00:43:38.553Z,99.90
2022-08-31T00:46:07.819Z,99.90
2022-08-31T00:48:37.496Z,99.90
2022-08-31T00:51:06.388Z,99.90
2022-08-31T00:53:34.752Z,99.90
2022-08-31T00:56:05.084Z,99.90
2022-08-31T00:58:33.327Z,99.90
2022-08-31T01:01:02.079Z,99.90
2022-08-31T01:03:30.370Z,99.90
2022-08-31T01:05:58.724Z,99.90
2022-08-31T01:08:30.712Z,99.90
2022-08-31T01:11:00.579Z,99.90
2022-08-31T01:13:31.539Z,99.90
2022-08-31T01:16:04.380Z,99.90
2022-08-31T01:18:35.139Z,99.90
2022-08-31T01:21:14.587Z,99.90
2022-08-31T01:23:46.344Z,99.90
2022-08-31T01:26:18.382Z,99.90
2022-08-31T01:28:49.018Z,99.90
2022-08-31T01:31:23.268Z,99.90
2022-08-31T01:33:51.779Z,99.90
2022-08-31T01:36:21.041Z,99.90
2022-08-31T01:38:53.048Z,99.90
2022-08-31T01:41:22.600Z,99.90
2022-08-31T01:43:53.047Z,99.90
2022-08-31T01:46:21.478Z,99.90
2022-08-31T01:48:50.428Z,99.90
2022-08-31T01:51:21.747Z,99.90
2022-08-31T01:53:53.709Z,99.90
2022-08-31T01:56:24.743Z,99.90
2022-08-31T01:58:53.382Z,99.90
2022-08-31T02:01:46.978Z,99.90
2022-08-31T02:04:19.814Z,99.90
2022-08-31T02:06:51.067Z,99.90
2022-08-31T02:09:22.970Z,99.90
2022-08-31T02:11:51.933Z,99.90
2022-08-31T02:14:20.730Z,99.90
2022-08-31T02:16:49.304Z,99.90
2022-08-31T02:19:18.134Z,99.90
2022-08-31T02:21:46.372Z,99.90
2022-08-31T02:24:14.841Z,99.90
2022-08-31T02:26:44.699Z,99.90
2022-08-31T02:29:13.112Z,99.90
2022-08-31T02:31:41.701Z,99.90
2022-08-31T02:34:10.113Z,99.90
2022-08-31T02:36:38.616Z,99.90
2022-08-31T02:39:08.924Z,99.90
2022-08-31T02:41:37.123Z,99.90
2022-08-31T02:44:07.026Z,99.90
2022-08-31T02:46:35.825Z,99.90
2022-08-31T02:49:30.193Z,99.90
2022-08-31T02:51:59.452Z,99.90
2022-08-31T02:54:28.061Z,99.90
2022-08-31T02:56:56.268Z,99.90
2022-08-31T02:59:25.832Z,99.90
2022-08-31T03:01:54.283Z,99.90
2022-08-31T03:04:23.037Z,99.90
2022-08-31T03:06:51.199Z,99.90
2022-08-31T03:09:20.061Z,99.90
2022-08-31T03:11:48.350Z,99.90
2022-08-31T03:14:16.553Z,99.90
2022-08-31T03:16:46.951Z,99.90
2022-08-31T03:19:21.300Z,99.90
2022-08-31T03:21:54.806Z,99.90
2022-08-31T03:24:27.368Z,99.90
2022-08-31T03:26:56.061Z,99.90
2022-08-31T03:29:24.345Z,99.90
2022-08-31T03:31:56.972Z,99.90
2022-08-31T03:34:26.873Z,99.90
2022-08-31T03:36:55.110Z,99.90
2022-08-31T03:39:23.696Z,99.90
2022-08-31T03:41:51.894Z,99.90
2022-08-31T03:44:23.876Z,99.90
2022-08-31T03:46:54.954Z,99.90
2022-08-31T03:49:27.024Z,99.90
2022-08-31T03:52:11.557Z,99.90
2022-08-31T03:54:49.406Z,99.90
2022-08-31T03:57:18.675Z,99.90
2022-08-31T03:59:46.891Z,99.90
2022-08-31T04:02:21.068Z,99.90
2022-08-31T04:05:17.950Z,99.90
2022-08-31T04:08:20.029Z,99.90
2022-08-31T04:11:10.719Z,99.90
2022-08-31T04:13:57.580Z,99.90
2022-08-31T04:16:45.691Z,99.90
2022-08-31T04:19:41.171Z,99.90
2022-08-31T04:22:20.310Z,99.90
2022-08-31T04:25:21.502Z,99.90
2022-08-31T04:27:50.373Z,99.90
2022-08-31T04:30:21.165Z,99.90
2022-08-31T04:32:49.644Z,99.90
2022-08-31T04:35:18.498Z,99.90
2022-08-31T04:37:48.245Z,99.90
2022-08-31T04:40:19.781Z,99.90
2022-08-31T04:42:49.055Z,99.90
2022-08-31T04:45:20.277Z,99.90
2022-08-31T04:47:48.726Z,99.90
2022-08-31T04:50:17.564Z,99.90
2022-08-31T04:53:05.593Z,99.90
2022-08-31T04:55:34.676Z,99.90
2022-08-31T04:58:02.988Z,99.90
2022-08-31T05:00:31.234Z,99.90
2022-08-31T05:03:02.000Z,99.90
2022-08-31T05:05:30.811Z,99.90
2022-08-31T05:07:59.105Z,99.90
2022-08-31T05:10:29.469Z,99.90
2022-08-31T05:12:57.740Z,99.90
2022-08-31T05:15:26.131Z,99.90
2022-08-31T05:17:54.451Z,99.90
2022-08-31T05:20:22.726Z,99.90
2022-08-31T05:22:51.004Z,99.90
2022-08-31T05:25:19.366Z,99.90
2022-08-31T05:27:50.122Z,99.90
2022-08-31T05:30:19.157Z,99.90
2022-08-31T05:33:03.056Z,99.90
2022-08-31T05:35:32.048Z,99.90
2022-08-31T05:38:00.193Z,99.90
2022-08-31T05:40:28.678Z,99.90
2022-08-31T05:42:59.598Z,99.90
2022-08-31T05:45:28.860Z,99.90
2022-08-31T05:47:57.400Z,99.90
2022-08-31T05:50:26.391Z,99.90
2022-08-31T05:52:54.684Z,99.90
2022-08-31T05:55:23.069Z,99.90
2022-08-31T05:57:52.659Z,99.90
2022-08-31T06:00:22.511Z,99.90
2022-08-31T06:02:57.653Z,99.90
2022-08-31T06:05:26.039Z,99.90
2022-08-31T06:07:54.551Z,99.90
2022-08-31T06:10:22.942Z,99.90
2022-08-31T06:12:51.227Z,99.90
2022-08-31T06:15:21.850Z,99.90
2022-08-31T06:17:50.195Z,99.90
2022-08-31T06:20:18.698Z,99.90
2022-08-31T06:22:48.952Z,99.90
2022-08-31T06:25:29.020Z,99.90
2022-08-31T06:27:59.401Z,99.90
2022-08-31T06:30:29.083Z,99.90
2022-08-31T06:32:58.928Z,99.90
2022-08-31T06:35:33.391Z,99.90
2022-08-31T06:38:21.658Z,99.90
2022-08-31T06:41:15.626Z,99.90
2022-08-31T06:44:05.735Z,99.90
2022-08-31T06:46:49.570Z,99.90
2022-08-31T06:49:21.763Z,99.90
2022-08-31T06:51:51.776Z,99.90
2022-08-31T06:54:35.790Z,97.30
2022-08-31T06:57:22.862Z,98.40
2022-08-31T07:00:10.375Z,96.00
2022-08-31T07:02:53.163Z,94.00
2022-08-31T07:05:26.896Z,95.50
2022-08-31T07:07:55.863Z,96.50
2022-08-31T07:10:24.536Z,95.40
2022-08-31T07:12:52.955Z,93.70
2022-08-31T07:15:21.161Z,91.60
2022-08-31T07:17:51.753Z,87.60
2022-08-31T07:20:22.805Z,85.40
2022-08-31T07:22:51.156Z,88.60
2022-08-31T07:25:39.497Z,86.10
2022-08-31T07:28:07.873Z,86.10
2022-08-31T07:30:39.926Z,88.70
2022-08-31T07:33:09.280Z,83.40
2022-08-31T07:35:43.479Z,83.40
2022-08-31T07:38:36.692Z,86.70
2022-08-31T07:41:28.048Z,82.90
2022-08-31T07:43:59.520Z,89.00
2022-08-31T07:46:30.092Z,80.10
2022-08-31T07:48:59.601Z,84.40
2022-08-31T07:51:55.925Z,80.80
2022-08-31T07:54:46.653Z,77.80
2022-08-31T07:57:31.319Z,76.60
2022-08-31T08:00:08.111Z,78.20
2022-08-31T08:02:50.853Z,74.00
2022-08-31T08:05:27.502Z,71.20
2022-08-31T08:08:22.250Z,67.10
2022-08-31T08:11:01.990Z,69.30
2022-08-31T08:13:30.325Z,67.40
2022-08-31T08:16:07.016Z,66.90
2022-08-31T08:18:55.582Z,62.90
2022-08-31T08:21:29.208Z,63.40
2022-08-31T08:23:59.004Z,61.70
2022-08-31T08:27:06.303Z,60.10
2022-08-31T08:29:34.613Z,61.60
2022-08-31T08:32:05.013Z,62.60
2022-08-31T08:34:33.922Z,63.40
2022-08-31T08:37:03.915Z,58.70
2022-08-31T08:39:33.535Z,58.00
2022-08-31T08:42:23.829Z,55.60
2022-08-31T08:44:52.500Z,59.10
2022-08-31T08:47:24.768Z,55.10
2022-08-31T08:50:03.803Z,57.00
2022-08-31T08:52:41.446Z,56.90
2022-08-31T08:55:16.164Z,57.10
2022-08-31T08:57:47.168Z,58.40
2022-08-31T09:00:19.037Z,59.10
2022-08-31T09:02:58.392Z,60.20
2022-08-31T09:06:02.922Z,55.30
2022-08-31T09:09:08.097Z,55.90
2022-08-31T09:11:54.942Z,56.40
2022-08-31T09:14:38.233Z,58.00
2022-08-31T09:17:18.007Z,57.60
2022-08-31T09:20:04.287Z,55.90
2022-08-31T09:22:35.214Z,51.20
2022-08-31T09:25:05.225Z,51.40
2022-08-31T09:27:59.591Z,50.50
2022-08-31T09:30:40.752Z,48.80
2022-08-31T09:33:18.360Z,49.10
2022-08-31T09:35:48.108Z,48.90
2022-08-31T09:38:29.656Z,48.00
2022-08-31T09:40:58.314Z,48.70
2022-08-31T09:43:38.558Z,47.60
2022-08-31T09:46:12.790Z,46.20
2022-08-31T09:48:45.244Z,45.30
2022-08-31T09:51:23.972Z,43.60
2022-08-31T09:54:10.670Z,43.50
2022-08-31T09:56:56.132Z,41.70
2022-08-31T09:59:38.558Z,42.10
2022-08-31T10:02:10.049Z,42.30
2022-08-31T10:04:51.111Z,41.70
2022-08-31T10:07:43.017Z,42.40
2022-08-31T10:10:28.434Z,42.40
2022-08-31T10:13:05.223Z,41.40
2022-08-31T10:15:42.180Z,40.80
2022-08-31T10:18:16.187Z,40.90
2022-08-31T10:20:50.755Z,41.90
2022-08-31T10:23:26.937Z,40.90
2022-08-31T10:26:01.018Z,42.70
2022-08-31T10:28:36.596Z,42.00
2022-08-31T10:31:13.715Z,44.70
2022-08-31T10:34:03.190Z,42.90
2022-08-31T10:36:36.782Z,41.20
2022-08-31T10:39:10.624Z,41.00
2022-08-31T10:41:44.197Z,40.10
2022-08-31T10:44:18.282Z,39.60
2022-08-31T10:46:49.002Z,39.50
2022-08-31T10:49:17.499Z,39.80
2022-08-31T10:52:01.789Z,38.60
2022-08-31T10:54:40.733Z,39.30
2022-08-31T10:57:22.387Z,39.60
2022-08-31T11:00:00.517Z,38.90
2022-08-31T11:02:46.690Z,39.00
2022-08-31T11:05:33.272Z,38.10
2022-08-31T11:08:22.036Z,41.70
2022-08-31T11:10:53.359Z,42.10
2022-08-31T11:13:39.459Z,42.60
2022-08-31T11:16:27.058Z,43.70
2022-08-31T11:19:22.568Z,45.50
2022-08-31T11:22:19.805Z,46.80
2022-08-31T11:25:29.415Z,44.40
2022-08-31T11:28:07.103Z,41.90
2022-08-31T11:30:42.216Z,41.10
2022-08-31T11:33:14.316Z,39.80
2022-08-31T11:36:06.387Z,40.70
2022-08-31T11:38:47.953Z,41.10
2022-08-31T11:41:39.123Z,42.30
2022-08-31T11:44:09.654Z,44.80
2022-08-31T11:46:44.172Z,46.30
2022-08-31T11:49:43.865Z,47.00
2022-08-31T11:52:29.628Z,47.30
2022-08-31T11:55:08.975Z,43.80
2022-08-31T11:58:25.943Z,40.90
2022-08-31T12:01:03.594Z,42.30
2022-08-31T12:03:50.767Z,40.20
2022-08-31T12:07:07.938Z,41.60
2022-08-31T12:10:00.975Z,39.50
2022-08-31T12:12:49.471Z,40.90
2022-08-31T12:15:26.135Z,42.30
2022-08-31T12:18:03.718Z,43.90
2022-08-31T12:21:03.304Z,42.20
2022-08-31T12:23:38.791Z,41.60
2022-08-31T12:26:26.669Z,38.50
2022-08-31T12:29:21.733Z,39.40
2022-08-31T12:32:12.797Z,39.70
2022-08-31T12:34:45.515Z,38.50
2022-08-31T12:37:35.327Z,37.40
2022-08-31T12:40:16.179Z,38.40
2022-08-31T12:43:03.919Z,37.10
2022-08-31T12:46:06.376Z,37.30
2022-08-31T12:49:21.789Z,37.50
2022-08-31T12:51:55.760Z,37.70
2022-08-31T12:54:54.110Z,38.00
2022-08-31T12:57:40.105Z,39.30
2022-08-31T13:00:15.956Z,38.60
2022-08-31T13:02:47.088Z,38.20
2022-08-31T13:05:24.003Z,37.60
2022-08-31T13:07:52.925Z,36.70
2022-08-31T13:10:32.575Z,38.20
2022-08-31T13:13:03.021Z,38.40
2022-08-31T13:15:39.340Z,39.40
2022-08-31T13:18:12.619Z,40.20
2022-08-31T13:20:43.491Z,39.60
2022-08-31T13:23:14.701Z,38.40
2022-08-31T13:25:48.418Z,39.80
2022-08-31T13:28:26.101Z,39.60
2022-08-31T13:31:03.332Z,38.70
2022-08-31T13:33:34.957Z,40.90
2022-08-31T13:36:07.139Z,40.30
2022-08-31T13:38:43.383Z,40.70
2022-08-31T13:41:27.436Z,40.80
2022-08-31T13:44:02.721Z,40.10
2022-08-31T13:46:43.347Z,41.40
2022-08-31T13:49:35.409Z,41.30
2022-08-31T13:52:06.081Z,42.60
2022-08-31T13:54:36.608Z,43.30
2022-08-31T13:57:19.584Z,42.50
2022-08-31T13:59:48.877Z,44.30
2022-08-31T14:02:37.221Z,44.60
2022-08-31T14:05:08.598Z,44.20
2022-08-31T14:07:59.210Z,44.60
2022-08-31T14:10:31.981Z,44.60
2022-08-31T14:13:04.011Z,45.40
2022-08-31T14:15:38.033Z,46.50
2022-08-31T14:18:27.314Z,47.20
2022-08-31T14:21:28.097Z,46.10
2022-08-31T14:24:01.050Z,47.20
2022-08-31T14:26:32.143Z,46.40
2022-08-31T14:29:03.550Z,46.70
2022-08-31T14:31:37.147Z,46.40
2022-08-31T14:34:22.414Z,48.30
2022-08-31T14:36:57.787Z,48.70
2022-08-31T14:39:30.761Z,48.20
2022-08-31T14:42:01.430Z,48.50
2022-08-31T14:44:33.246Z,49.40
2022-08-31T14:47:01.941Z,49.70
2022-08-31T14:49:36.322Z,48.80
2022-08-31T14:52:06.605Z,50.30
2022-08-31T14:54:37.364Z,50.40
2022-08-31T14:57:11.552Z,52.00
2022-08-31T14:59:43.726Z,53.50
2022-08-31T15:02:16.521Z,54.60
2022-08-31T15:04:46.621Z,55.50
2022-08-31T15:07:16.191Z,55.10
2022-08-31T15:09:46.751Z,56.10
2022-08-31T15:12:16.413Z,56.70
2022-08-31T15:14:47.219Z,57.30
2022-08-31T15:17:19.036Z,57.60
2022-08-31T15:19:54.634Z,57.60
2022-08-31T15:22:23.996Z,57.90
2022-08-31T15:24:52.526Z,57.90
2022-08-31T15:27:23.419Z,57.90
2022-08-31T15:29:58.922Z,59.50
2022-08-31T15:32:27.876Z,59.20
2022-08-31T15:34:58.378Z,58.40
2022-08-31T15:37:31.639Z,57.10
2022-08-31T15:40:02.124Z,56.70
2022-08-31T15:42:39.938Z,58.20
2022-08-31T15:45:09.659Z,58.30
2022-08-31T15:47:57.595Z,58.50
2022-08-31T15:50:32.113Z,58.80
2022-08-31T15:53:08.184Z,60.30
2022-08-31T15:55:40.595Z,61.40
2022-08-31T15:58:13.696Z,61.40
2022-08-31T16:00:42.374Z,61.60
2022-08-31T16:03:10.731Z,61.70
2022-08-31T16:05:43.106Z,62.10
2022-08-31T16:08:12.412Z,60.80
2022-08-31T16:10:44.920Z,61.30
2022-08-31T16:13:13.699Z,61.70
2022-08-31T16:15:42.254Z,62.00
2022-08-31T16:18:11.198Z,62.40
2022-08-31T16:20:45.905Z,62.70
2022-08-31T16:23:14.160Z,63.00
2022-08-31T16:25:48.633Z,62.90
2022-08-31T16:28:18.271Z,64.30
2022-08-31T16:30:46.896Z,65.10
2022-08-31T16:33:15.910Z,64.50
2022-08-31T16:35:46.013Z,65.10
2022-08-31T16:38:14.508Z,65.70
2022-08-31T16:40:43.144Z,66.60
2022-08-31T16:43:11.736Z,66.60
2022-08-31T16:45:41.092Z,66.70
2022-08-31T16:48:29.366Z,66.60
2022-08-31T16:51:02.738Z,66.70
2022-08-31T16:53:31.829Z,67.80
2022-08-31T16:56:03.266Z,68.20
2022-08-31T17:01:22.404Z,68.30
2022-08-31T17:03:53.182Z,68.30
2022-08-31T17:06:23.327Z,69.40
2022-08-31T17:08:54.631Z,69.90
2022-08-31T17:11:25.191Z,70.60
2022-08-31T17:13:58.342Z,71.60
2022-08-31T17:16:29.833Z,71.70
2022-08-31T17:18:59.794Z,71.10
2022-08-31T17:21:31.711Z,70.00
2022-08-31T17:24:02.052Z,68.40
2022-08-31T17:26:33.841Z,65.60
2022-08-31T17:29:05.323Z,64.20
2022-08-31T17:31:36.531Z,61.50
2022-08-31T17:34:06.082Z,61.00
2022-08-31T17:36:37.735Z,60.40
2022-08-31T17:39:06.933Z,62.60
2022-08-31T17:41:35.830Z,59.20
2022-08-31T17:44:04.766Z,59.70
2022-08-31T17:46:33.237Z,61.30
2022-08-31T17:49:02.093Z,61.60
2022-08-31T17:51:35.693Z,58.90
2022-08-31T17:54:06.328Z,60.20
2022-08-31T17:56:38.014Z,61.10
2022-08-31T17:59:06.438Z,59.90
2022-08-31T18:01:35.705Z,60.90
2022-08-31T18:04:06.148Z,61.00
2022-08-31T18:06:36.068Z,63.30
2022-08-31T18:09:04.957Z,61.90
2022-08-31T18:11:34.050Z,62.00
2022-08-31T18:14:02.282Z,63.10
2022-08-31T18:16:30.560Z,64.00
2022-08-31T18:18:59.167Z,63.90
2022-08-31T18:21:27.374Z,64.10
2022-08-31T18:23:57.055Z,64.50
2022-08-31T18:26:28.724Z,66.10
2022-08-31T18:28:57.912Z,65.00
2022-08-31T18:31:30.891Z,65.90
2022-08-31T18:33:59.551Z,66.90
2022-08-31T18:36:29.607Z,66.40
2022-08-31T18:39:01.219Z,66.80
2022-08-31T18:41:48.355Z,67.10
2022-08-31T18:44:34.692Z,67.90
2022-08-31T18:47:06.324Z,68.20
2022-08-31T18:49:39.283Z,68.00
2022-08-31T18:52:09.886Z,68.80
2022-08-31T18:54:39.888Z,69.70
2022-08-31T18:57:08.341Z,70.10
2022-08-31T18:59:38.328Z,70.90
2022-08-31T19:02:07.033Z,71.20
2022-08-31T19:04:37.113Z,71.50
2022-08-31T19:07:07.054Z,72.30
2022-08-31T19:09:35.600Z,73.40
2022-08-31T19:12:06.285Z,73.50
2022-08-31T19:14:37.176Z,73.80
2022-08-31T19:17:07.771Z,73.90
2022-08-31T19:19:39.016Z,74.20
2022-08-31T19:22:07.807Z,75.10
2022-08-31T19:24:40.886Z,75.70
2022-08-31T19:27:11.265Z,76.70
2022-08-31T19:29:40.010Z,77.40
2022-08-31T19:32:11.586Z,77.60
2022-08-31T19:34:43.250Z,78.20
2022-08-31T19:37:13.749Z,78.40
2022-08-31T19:39:45.765Z,79.20
2022-08-31T19:42:16.430Z,79.40
2022-08-31T19:44:55.760Z,80.90
2022-08-31T19:47:38.834Z,80.50
2022-08-31T19:50:13.573Z,80.30
2022-08-31T19:52:42.692Z,81.80
2022-08-31T19:55:12.339Z,81.80
2022-08-31T19:57:43.597Z,82.50
2022-08-31T20:00:13.460Z,83.20
2022-08-31T20:02:44.545Z,83.00
2022-08-31T20:05:15.194Z,84.50
2022-08-31T20:07:45.528Z,84.50
2022-08-31T20:10:14.454Z,84.70
2022-08-31T20:12:46.560Z,86.90
2022-08-31T20:15:15.888Z,86.40
2022-08-31T20:17:44.429Z,87.50
2022-08-31T20:20:15.227Z,88.80
2022-08-31T20:22:45.658Z,89.80
2022-08-31T20:25:18.866Z,90.00
2022-08-31T20:27:50.531Z,90.20
2022-08-31T20:30:19.509Z,90.60
2022-08-31T20:32:47.812Z,90.90
2022-08-31T20:35:16.153Z,91.30
2022-08-31T20:37:44.383Z,91.60
2022-08-31T20:40:17.446Z,92.10
2022-08-31T20:42:45.865Z,92.50
2022-08-31T20:45:15.631Z,92.70
2022-08-31T20:48:01.423Z,92.50
2022-08-31T20:50:29.778Z,92.80
2022-08-31T20:52:59.489Z,93.10
2022-08-31T20:55:28.003Z,92.90
2022-08-31T20:57:56.260Z,92.80
2022-08-31T21:00:25.871Z,93.20
2022-08-31T21:02:56.379Z,93.30
2022-08-31T21:05:40.820Z,93.50
2022-08-31T21:08:09.310Z,93.30
2022-08-31T21:10:38.664Z,93.30
2022-08-31T21:13:09.107Z,93.60
2022-08-31T21:15:43.961Z,93.60
2022-08-31T21:18:12.597Z,93.60
2022-08-31T21:20:40.959Z,93.80
2022-08-31T21:23:10.485Z,94.20
2022-08-31T21:25:44.019Z,94.30
2022-08-31T21:28:15.625Z,94.20
2022-08-31T21:30:47.078Z,94.50
2022-08-31T21:33:15.629Z,94.50
2022-08-31T21:35:43.877Z,95.00
2022-08-31T21:38:12.976Z,94.90
2022-08-31T21:40:48.783Z,94.70
2022-08-31T21:43:17.199Z,94.60
2022-08-31T21:45:46.809Z,94.50
2022-08-31T21:48:15.031Z,94.80
2022-08-31T21:50:44.003Z,94.50
2022-08-31T21:53:12.924Z,94.70
2022-08-31T21:55:41.156Z,95.00
2022-08-31T21:58:09.536Z,94.50
2022-08-31T22:00:41.795Z,94.90
2022-08-31T22:03:12.769Z,95.10
2022-08-31T22:05:43.528Z,94.80
2022-08-31T22:08:11.950Z,95.10
2022-08-31T22:10:42.003Z,94.80
2022-08-31T22:13:12.250Z,94.60
2022-08-31T22:15:42.622Z,94.90
2022-08-31T22:18:58.687Z,95.20
2022-08-31T22:21:05.086Z,95.30
2022-08-31T22:23:34.567Z,95.50
2022-08-31T22:26:03.398Z,95.40
2022-08-31T22:28:31.725Z,95.70
2022-08-31T22:31:02.280Z,96.30
2022-08-31T22:33:32.063Z,96.40
2022-08-31T22:36:00.388Z,96.30
2022-08-31T22:38:29.075Z,96.70
2022-08-31T22:40:58.040Z,97.00
2022-08-31T22:43:26.647Z,97.40
2022-08-31T22:45:54.969Z,97.50
2022-08-31T22:48:23.321Z,97.70
2022-08-31T22:50:52.909Z,98.00
2022-08-31T22:53:21.352Z,98.70
2022-08-31T22:55:50.387Z,98.60
2022-08-31T22:58:18.729Z,98.60
2022-08-31T23:00:48.162Z,99.10
2022-08-31T23:03:17.086Z,99.40
2022-08-31T23:05:45.339Z,99.90
2022-08-31T23:08:16.180Z,99.90
2022-08-31T23:10:44.986Z,99.90
2022-08-31T23:13:13.237Z,99.90
2022-08-31T23:15:42.769Z,99.90
2022-08-31T23:18:11.011Z,99.90
2022-08-31T23:20:41.762Z,99.90
2022-08-31T23:23:10.993Z,99.90
2022-08-31T23:25:41.840Z,99.90
2022-08-31T23:28:10.019Z,99.90
2022-08-31T23:30:43.352Z,99.90
2022-08-31T23:33:11.659Z,99.90
2022-08-31T23:35:40.785Z,99.90
2022-08-31T23:38:09.391Z,99.90
2022-08-31T23:40:37.939Z,99.90
2022-08-31T23:43:09.043Z,99.90
2022-08-31T23:45:40.916Z,99.90
2022-08-31T23:48:09.685Z,99.90
2022-08-31T23:50:38.719Z,99.90
2022-08-31T23:53:11.905Z,99.90
2022-08-31T23:55:43.731Z,99.90
2022-08-31T23:58:14.156Z,99.90
